Time;durP1;ratioP1;P1;durP2;ratioP2;P2;SDS_P1;SDS_P2;PMS_P1;PMS_P2;Temp;Humidity;BMP_temperature;BMP_pressure;BME280_temperature;BME280_humidity;BME280_pressure;Samples;Min_cycle;Max_cycle;Signal;HPM_P1;HPM_P2
2023/04/26 00:01:47;;;;;;;85.78;51.50;;;15.80;64.20;;;;;;4995393;28;92244;-84
2023/04/26 00:04:13;;;;;;;84.32;51.15;;;15.70;64.20;;;;;;4996279;28;89495;-83
2023/04/26 00:06:39;;;;;;;86.47;51.53;;;15.80;65.00;;;;;;4994902;28;94190;-82
2023/04/26 00:09:05;;;;;;;85.55;51.67;;;15.70;64.20;;;;;;4998875;28;93864;-81
2023/04/26 00:11:31;;;;;;;85.28;51.50;;;15.70;64.20;;;;;;4989301;28;90514;-80
2023/04/26 00:13:58;;;;;;;86.15;51.35;;;15.70;64.30;;;;;;4996756;28;94689;-82
2023/04/26 00:16:23;;;;;;;84.88;51.30;;;15.70;64.20;;;;;;5000883;28;93955;-84
2023/04/26 00:18:49;;;;;;;85.82;51.47;;;15.60;64.30;;;;;;5002917;28;92851;-80
2023/04/26 00:21:15;;;;;;;87.10;51.53;;;15.60;64.10;;;;;;4994791;28;90047;-80
2023/04/26 00:23:41;;;;;;;84.85;51.15;;;15.60;64.30;;;;;;4994204;28;89375;-80
2023/04/26 00:26:06;;;;;;;85.50;51.38;;;15.60;64.10;;;;;;4991680;28;90013;-84
2023/04/26 00:28:33;;;;;;;85.65;51.45;;;15.60;64.30;;;;;;4994243;28;91892;-80
2023/04/26 00:30:59;;;;;;;84.22;51.53;;;15.50;64.20;;;;;;4994881;28;91295;-81
2023/04/26 00:33:25;;;;;;;85.10;51.55;;;15.50;64.30;;;;;;4995016;28;89606;-80
2023/04/26 00:35:50;;;;;;;84.22;51.20;;;15.60;64.30;;;;;;4994558;28;92955;-84
2023/04/26 00:38:17;;;;;;;85.38;51.33;;;15.50;64.30;;;;;;4993987;28;93530;-80
2023/04/26 00:40:43;;;;;;;85.38;51.50;;;15.50;64.30;;;;;;4991528;28;89758;-80
2023/04/26 00:43:09;;;;;;;85.53;51.75;;;15.50;64.30;;;;;;4987448;28;89911;-81
2023/04/26 00:45:35;;;;;;;85.35;51.45;;;15.50;64.30;;;;;;4988967;28;89945;-83
2023/04/26 00:48:02;;;;;;;85.82;51.25;;;15.50;64.30;;;;;;4998908;28;91861;-81
2023/04/26 00:50:28;;;;;;;84.40;51.42;;;15.40;64.40;;;;;;4999360;28;89462;-80
2023/04/26 00:52:56;;;;;;;85.40;51.45;;;15.40;64.40;;;;;;4995207;28;90206;-81
2023/04/26 00:55:22;;;;;;;85.10;51.20;;;15.40;64.40;;;;;;4990621;28;94485;-81
2023/04/26 00:57:47;;;;;;;85.28;51.55;;;15.40;64.40;;;;;;4999380;28;94569;-80
2023/04/26 01:00:15;;;;;;;84.80;51.63;;;15.40;64.50;;;;;;4996127;28;89481;-81
2023/04/26 01:02:41;;;;;;;83.85;51.05;;;15.40;64.40;;;;;;5000081;28;90950;-81
2023/04/26 01:05:08;;;;;;;84.78;51.25;;;15.40;64.40;;;;;;4999296;28;92372;-79
2023/04/26 01:07:35;;;;;;;84.60;51.28;;;15.30;64.30;;;;;;4999702;28;95146;-83
2023/04/26 01:10:04;;;;;;;85.93;51.10;;;15.30;64.40;;;;;;5003730;28;89886;-80
2023/04/26 01:12:30;;;;;;;84.03;51.33;;;15.30;64.30;;;;;;4997005;28;91669;-81
2023/04/26 01:14:56;;;;;;;84.55;51.17;;;15.30;64.40;;;;;;4995838;28;92842;-81
2023/04/26 01:17:22;;;;;;;84.93;51.15;;;15.30;64.40;;;;;;4999027;28;92542;-83
2023/04/26 01:19:48;;;;;;;85.95;51.38;;;15.20;64.40;;;;;;5000696;28;90930;-80
2023/04/26 01:22:15;;;;;;;84.82;51.47;;;15.20;64.30;;;;;;4994221;28;91705;-81
2023/04/26 01:24:44;;;;;;;83.93;51.15;;;15.20;64.30;;;;;;4995398;28;92868;-81
2023/04/26 01:27:10;;;;;;;84.88;51.38;;;15.20;64.30;;;;;;4999098;28;91620;-80
2023/04/26 01:29:36;;;;;;;84.47;51.38;;;15.20;64.40;;;;;;5015132;27;89949;-81
2023/04/26 01:32:02;;;;;;;85.38;51.83;;;15.20;64.40;;;;;;4997649;28;89705;-80
2023/04/26 01:34:28;;;;;;;84.22;51.17;;;15.20;64.30;;;;;;5001819;28;93092;-80
2023/04/26 01:36:56;;;;;;;83.65;50.85;;;15.10;65.00;;;;;;5000586;28;93027;-80
2023/04/26 01:39:22;;;;;;;84.95;51.20;;;15.10;64.30;;;;;;5002560;28;89630;-80
2023/04/26 01:41:47;;;;;;;84.47;51.22;;;15.10;64.30;;;;;;5003160;28;89453;-80
2023/04/26 01:44:13;;;;;;;84.47;51.25;;;15.10;64.20;;;;;;5006828;28;94521;-84
2023/04/26 01:46:39;;;;;;;84.55;51.35;;;15.10;64.20;;;;;;4998762;28;90760;-84
2023/04/26 01:49:04;;;;;;;85.82;51.47;;;15.00;64.20;;;;;;5001744;28;89905;-80
2023/04/26 01:51:31;;;;;;;84.07;51.25;;;15.00;64.30;;;;;;4995929;28;89816;-81
2023/04/26 01:53:57;;;;;;;83.75;51.28;;;15.00;64.10;;;;;;5002507;28;92950;-81
2023/04/26 01:56:23;;;;;;;84.75;51.60;;;15.00;65.00;;;;;;5000614;28;92370;-81
2023/04/26 01:58:49;;;;;;;84.30;51.30;;;15.00;64.20;;;;;;5015051;27;91225;-82
2023/04/26 02:01:14;;;;;;;84.53;51.45;;;15.00;64.30;;;;;;5004642;28;88699;-84
2023/04/26 02:03:40;;;;;;;83.32;51.30;;;15.00;64.30;;;;;;5007287;28;92833;-80
2023/04/26 02:06:06;;;;;;;84.05;51.33;;;15.00;64.30;;;;;;5000497;28;92454;-83
2023/04/26 02:08:32;;;;;;;84.53;51.35;;;15.00;64.20;;;;;;4997879;28;90490;-81
2023/04/26 02:10:58;;;;;;;83.78;51.42;;;14.90;64.20;;;;;;5001894;28;90243;-80
2023/04/26 02:13:24;;;;;;;83.78;51.10;;;15.00;64.30;;;;;;5001106;28;93843;-80
2023/04/26 02:15:50;;;;;;;83.18;51.28;;;14.90;64.10;;;;;;5001276;28;93751;-80
2023/04/26 02:18:16;;;;;;;83.50;51.28;;;14.90;64.20;;;;;;5003649;28;92678;-80
2023/04/26 02:20:43;;;;;;;84.68;51.05;;;14.90;64.30;;;;;;5001979;28;89649;-81
2023/04/26 02:23:10;;;;;;;83.47;51.03;;;14.90;64.20;;;;;;4997020;28;90667;-82
2023/04/26 02:25:36;;;;;;;83.10;50.85;;;14.90;64.10;;;;;;5002478;28;93315;-81
2023/04/26 02:28:05;;;;;;;82.82;51.10;;;14.80;64.10;;;;;;5005617;28;89760;-81
2023/04/26 02:30:30;;;;;;;84.30;51.25;;;14.90;64.30;;;;;;5005974;28;90868;-85
2023/04/26 02:32:57;;;;;;;83.63;51.25;;;14.80;64.10;;;;;;5022019;27;93530;-81
2023/04/26 02:35:23;;;;;;;83.70;51.35;;;14.80;64.20;;;;;;4999409;28;93980;-80
2023/04/26 02:37:51;;;;;;;83.28;51.15;;;14.80;64.30;;;;;;5003551;28;89438;-80
2023/04/26 02:40:17;;;;;;;86.75;51.28;;;14.80;64.20;;;;;;5003048;28;89713;-83
2023/04/26 02:42:43;;;;;;;83.13;50.70;;;14.80;64.20;;;;;;5002914;28;92408;-81
2023/04/26 02:45:09;;;;;;;83.55;51.33;;;14.80;64.10;;;;;;5006167;28;93750;-80
2023/04/26 02:47:35;;;;;;;83.55;51.20;;;14.70;64.20;;;;;;4997831;28;90409;-82
2023/04/26 02:50:02;;;;;;;83.00;51.08;;;14.70;64.10;;;;;;5001090;28;88794;-83
2023/04/26 02:52:28;;;;;;;83.30;51.22;;;14.70;64.20;;;;;;4996624;28;93154;-80
2023/04/26 02:54:54;;;;;;;84.22;51.38;;;14.70;64.10;;;;;;4999939;28;89849;-79
2023/04/26 02:57:19;;;;;;;83.45;51.25;;;14.70;64.20;;;;;;5001817;28;90630;-83
2023/04/26 02:59:45;;;;;;;84.05;51.30;;;14.70;64.20;;;;;;5001057;28;92174;-80
2023/04/26 03:02:11;;;;;;;83.53;51.17;;;14.70;64.10;;;;;;4999357;28;92060;-83
2023/04/26 03:04:37;;;;;;;82.35;51.05;;;14.70;64.10;;;;;;5000963;28;93240;-81
2023/04/26 03:07:03;;;;;;;84.25;51.10;;;14.60;64.10;;;;;;4999479;28;90488;-80
2023/04/26 03:09:29;;;;;;;83.53;51.20;;;14.60;64.00;;;;;;4995469;28;92321;-83
2023/04/26 03:11:55;;;;;;;82.85;51.00;;;14.60;64.00;;;;;;5000659;28;93150;-80
2023/04/26 03:14:21;;;;;;;83.65;51.33;;;14.60;64.00;;;;;;4999706;28;89053;-80
2023/04/26 03:16:47;;;;;;;83.43;51.05;;;14.60;64.10;;;;;;5000523;28;90177;-80
2023/04/26 03:19:13;;;;;;;83.28;50.95;;;14.60;64.10;;;;;;5000424;28;89473;-80
2023/04/26 03:21:39;;;;;;;82.70;50.78;;;14.60;64.10;;;;;;5001940;28;93893;-81
2023/04/26 03:24:05;;;;;;;83.13;50.92;;;14.50;64.10;;;;;;5000248;28;93075;-80
2023/04/26 03:26:31;;;;;;;83.57;50.92;;;14.50;64.10;;;;;;5001799;28;89834;-80
2023/04/26 03:28:56;;;;;;;82.97;51.35;;;14.50;64.10;;;;;;4995416;28;89383;-84
2023/04/26 03:31:22;;;;;;;84.63;51.65;;;14.50;64.00;;;;;;5003428;28;92767;-81
2023/04/26 03:33:48;;;;;;;83.00;51.10;;;14.50;64.10;;;;;;4998744;28;92626;-82
2023/04/26 03:36:14;;;;;;;84.82;51.40;;;14.50;64.00;;;;;;5000445;28;92181;-81
2023/04/26 03:38:41;;;;;;;84.18;51.30;;;14.50;64.10;;;;;;5010399;28;90072;-81
2023/04/26 03:41:07;;;;;;;83.07;51.00;;;14.50;64.10;;;;;;4999325;28;93347;-81
2023/04/26 03:43:33;;;;;;;82.50;50.72;;;14.40;64.00;;;;;;4998927;28;93542;-82
2023/04/26 03:45:59;;;;;;;83.03;51.10;;;14.40;63.90;;;;;;5003462;28;90514;-82
2023/04/26 03:48:26;;;;;;;82.38;50.97;;;14.40;64.00;;;;;;5001070;28;90120;-83
2023/04/26 03:50:52;;;;;;;82.85;50.95;;;14.40;64.00;;;;;;4995823;28;93887;-84
2023/04/26 03:53:17;;;;;;;82.65;50.97;;;14.40;64.00;;;;;;4999724;28;90484;-80
2023/04/26 03:55:43;;;;;;;83.15;51.05;;;14.40;64.00;;;;;;4998929;28;90070;-80
2023/04/26 03:58:09;;;;;;;83.13;51.13;;;14.40;64.00;;;;;;4995285;28;89455;-80
2023/04/26 04:00:38;;;;;;;82.30;51.03;;;14.40;64.00;;;;;;4992526;28;90137;-83
2023/04/26 04:03:05;;;;;;;83.40;51.00;;;14.40;64.00;;;;;;5002275;28;93184;-84
2023/04/26 04:05:31;;;;;;;83.80;51.38;;;14.30;64.00;;;;;;4997336;28;91282;-81
2023/04/26 04:07:57;;;;;;;82.32;51.20;;;14.30;63.90;;;;;;4999471;28;89616;-82
2023/04/26 04:10:23;;;;;;;83.60;51.08;;;14.30;64.00;;;;;;4996483;28;94349;-80
2023/04/26 04:12:50;;;;;;;84.28;50.95;;;14.30;64.00;;;;;;5002609;28;93404;-81
2023/04/26 04:15:16;;;;;;;84.22;51.42;;;14.30;64.00;;;;;;4997627;28;89484;-80
2023/04/26 04:17:41;;;;;;;83.53;51.35;;;14.30;64.00;;;;;;5011056;27;89917;-81
2023/04/26 04:20:08;;;;;;;82.35;51.33;;;14.30;64.00;;;;;;4995497;28;92891;-82
2023/04/26 04:22:34;;;;;;;84.90;51.08;;;14.30;63.90;;;;;;4996089;28;93883;-80
2023/04/26 04:24:59;;;;;;;82.97;51.00;;;14.20;64.00;;;;;;4992932;28;91207;-81
2023/04/26 04:27:26;;;;;;;82.45;50.92;;;14.20;64.00;;;;;;5001643;28;89371;-80
2023/04/26 04:29:52;;;;;;;82.80;51.22;;;14.20;64.00;;;;;;4996742;28;93393;-80
2023/04/26 04:32:19;;;;;;;81.93;50.88;;;14.20;63.90;;;;;;4991527;28;93196;-80
2023/04/26 04:34:45;;;;;;;81.47;50.72;;;14.20;64.00;;;;;;5000217;28;90533;-80
2023/04/26 04:37:10;;;;;;;82.28;50.92;;;14.20;64.10;;;;;;4995331;28;90302;-80
2023/04/26 04:39:36;;;;;;;84.00;51.03;;;14.20;64.00;;;;;;4999283;28;91013;-82
2023/04/26 04:42:02;;;;;;;81.82;50.85;;;14.20;64.00;;;;;;4998300;28;92754;-80
2023/04/26 04:44:28;;;;;;;83.00;51.15;;;14.20;64.10;;;;;;4995796;28;89820;-80
2023/04/26 04:46:55;;;;;;;83.47;51.15;;;14.20;64.10;;;;;;5001277;28;90057;-83
2023/04/26 04:49:21;;;;;;;82.85;51.03;;;14.10;64.10;;;;;;4995887;28;90484;-85
2023/04/26 04:51:46;;;;;;;82.60;51.25;;;14.10;64.00;;;;;;4994664;28;92768;-81
2023/04/26 04:54:14;;;;;;;83.40;51.58;;;14.10;64.10;;;;;;4992490;28;89514;-81
2023/04/26 04:56:40;;;;;;;82.90;50.85;;;14.10;64.10;;;;;;4998047;28;90361;-82
2023/04/26 04:59:06;;;;;;;81.93;51.08;;;14.10;64.10;;;;;;4987874;28;93494;-80
2023/04/26 05:01:33;;;;;;;81.72;50.85;;;14.10;64.10;;;;;;4992168;28;92377;-81
2023/04/26 05:03:59;;;;;;;82.30;51.08;;;14.10;64.20;;;;;;4993144;28;90153;-79
2023/04/26 05:06:26;;;;;;;82.15;51.00;;;14.10;64.20;;;;;;4993053;28;89564;-80
2023/04/26 05:08:52;;;;;;;82.82;50.95;;;14.10;64.20;;;;;;4993777;28;93209;-79
2023/04/26 05:11:18;;;;;;;84.50;51.45;;;14.10;64.40;;;;;;4997766;28;92339;-81
2023/04/26 05:13:45;;;;;;;82.57;51.08;;;14.00;64.20;;;;;;5000545;28;96432;-79
2023/04/26 05:16:10;;;;;;;81.97;50.80;;;14.10;64.30;;;;;;5001290;28;89021;-79
2023/04/26 05:18:36;;;;;;;82.32;50.63;;;14.10;64.30;;;;;;4998403;28;92629;-80
2023/04/26 05:21:01;;;;;;;82.45;51.20;;;14.00;64.20;;;;;;5000532;28;92574;-84
2023/04/26 05:23:27;;;;;;;82.75;51.10;;;14.00;64.20;;;;;;4998270;28;91102;-82
2023/04/26 05:25:53;;;;;;;82.22;50.95;;;14.00;64.50;;;;;;4997454;28;90402;-81
2023/04/26 05:28:18;;;;;;;81.72;50.90;;;14.00;64.70;;;;;;4996899;28;93424;-83
2023/04/26 05:30:45;;;;;;;81.60;50.72;;;14.00;64.80;;;;;;4993060;28;92503;-84
2023/04/26 05:33:11;;;;;;;85.38;50.65;;;14.00;65.00;;;;;;4995729;28;89867;-81
2023/04/26 05:35:37;;;;;;;82.95;51.25;;;13.90;65.20;;;;;;4990017;28;89708;-83
2023/04/26 05:38:02;;;;;;;83.10;51.28;;;13.90;65.50;;;;;;4994376;28;95748;-80
2023/04/26 05:40:28;;;;;;;84.47;51.00;;;13.90;65.60;;;;;;4988479;28;93216;-79
2023/04/26 05:42:54;;;;;;;87.93;51.78;;;13.90;65.80;;;;;;4999298;28;92247;-80
2023/04/26 05:45:21;;;;;;;84.90;52.05;;;14.00;66.50;;;;;;5011271;27;90017;-80
2023/04/26 05:47:47;;;;;;;86.03;51.47;;;13.90;66.00;;;;;;5003522;28;94696;-81
2023/04/26 05:50:13;;;;;;;83.88;51.78;;;13.90;65.90;;;;;;4999166;28;94878;-79
2023/04/26 05:52:38;;;;;;;87.80;51.75;;;13.90;66.10;;;;;;4996235;28;89964;-79
2023/04/26 05:55:05;;;;;;;87.75;52.10;;;13.90;66.10;;;;;;4996555;27;90509;-80
2023/04/26 05:57:31;;;;;;;88.45;52.42;;;13.90;66.10;;;;;;5000627;28;91089;-80
2023/04/26 05:59:57;;;;;;;88.60;52.72;;;13.90;66.30;;;;;;4996301;28;93034;-82
2023/04/26 06:02:22;;;;;;;86.38;52.25;;;14.00;66.40;;;;;;4998424;28;90016;-80
2023/04/26 06:04:48;;;;;;;90.78;52.72;;;13.90;66.50;;;;;;5005803;28;89592;-81
2023/04/26 06:07:16;;;;;;;91.47;52.72;;;13.90;66.60;;;;;;5003313;28;92747;-80
2023/04/26 06:09:42;;;;;;;89.80;53.13;;;13.90;66.70;;;;;;4998922;28;90203;-79
2023/04/26 06:12:07;;;;;;;89.90;52.85;;;13.90;66.70;;;;;;5000242;28;92543;-81
2023/04/26 06:14:33;;;;;;;87.22;52.78;;;13.90;66.80;;;;;;5007610;28;89535;-80
2023/04/26 06:16:59;;;;;;;91.07;52.70;;;13.90;66.80;;;;;;4998292;28;94588;-80
2023/04/26 06:19:25;;;;;;;87.50;52.95;;;13.90;67.00;;;;;;4998215;28;92867;-80
2023/04/26 06:21:54;;;;;;;90.63;53.20;;;14.00;67.00;;;;;;4997435;28;89223;-81
2023/04/26 06:24:20;;;;;;;87.70;52.47;;;14.00;67.00;;;;;;4999424;28;89785;-80
2023/04/26 06:26:45;;;;;;;89.88;52.65;;;13.90;67.00;;;;;;4998158;28;93391;-80
2023/04/26 06:29:11;;;;;;;88.82;52.85;;;13.90;67.10;;;;;;5002473;28;92338;-80
2023/04/26 06:31:37;;;;;;;87.20;52.55;;;13.90;67.10;;;;;;4997581;28;89906;-82
2023/04/26 06:34:03;;;;;;;88.88;52.78;;;13.90;67.30;;;;;;4995826;28;92177;-82
2023/04/26 06:36:30;;;;;;;87.60;52.55;;;14.00;67.90;;;;;;4999027;28;90853;-81
2023/04/26 06:38:55;;;;;;;88.28;52.53;;;14.00;68.60;;;;;;5002596;28;93742;-79
2023/04/26 06:41:21;;;;;;;89.22;52.38;;;14.10;68.80;;;;;;4997231;28;89694;-78
2023/04/26 06:43:47;;;;;;;87.53;52.08;;;14.10;68.20;;;;;;5011657;27;90651;-78
2023/04/26 06:46:13;;;;;;;90.18;52.22;;;14.10;67.60;;;;;;4998781;28;90208;-79
2023/04/26 06:48:38;;;;;;;86.88;52.20;;;14.10;67.20;;;;;;4998484;28;89788;-78
2023/04/26 06:51:07;;;;;;;87.80;52.05;;;14.10;66.90;;;;;;4995753;28;90158;-80
2023/04/26 06:53:37;;;;;;;87.20;52.42;;;14.20;67.20;;;;;;4998195;28;89111;-82
2023/04/26 06:56:03;;;;;;;88.47;52.40;;;14.20;67.80;;;;;;4999807;28;90259;-79
2023/04/26 06:58:28;;;;;;;88.28;52.28;;;14.20;67.60;;;;;;4996915;28;90221;-79
2023/04/26 07:00:54;;;;;;;87.32;52.40;;;14.30;67.70;;;;;;4996705;28;91497;-81
2023/04/26 07:03:20;;;;;;;88.07;52.10;;;14.30;67.70;;;;;;4992003;28;89448;-83
2023/04/26 07:05:45;;;;;;;86.40;52.55;;;14.30;67.70;;;;;;4995015;28;89969;-79
2023/04/26 07:08:11;;;;;;;86.70;52.35;;;14.30;67.90;;;;;;5010874;27;93272;-79
2023/04/26 07:10:38;;;;;;;87.05;52.10;;;14.30;67.60;;;;;;4997723;28;91103;-79
2023/04/26 07:13:04;;;;;;;85.72;51.88;;;14.30;67.50;;;;;;5001985;28;92088;-78
2023/04/26 07:15:31;;;;;;;87.35;52.25;;;14.30;67.20;;;;;;5000581;28;92592;-78
2023/04/26 07:17:56;;;;;;;89.20;51.97;;;14.40;67.10;;;;;;4994888;28;89795;-82
2023/04/26 07:20:23;;;;;;;87.53;52.25;;;14.40;67.70;;;;;;4994278;28;89413;-77
2023/04/26 07:22:49;;;;;;;85.60;52.00;;;14.40;68.30;;;;;;4996884;28;89835;-78
2023/04/26 07:25:16;;;;;;;87.55;52.20;;;14.40;68.40;;;;;;5010143;27;92905;-80
2023/04/26 07:27:42;;;;;;;89.78;52.15;;;14.40;68.20;;;;;;4994459;28;91332;-79
2023/04/26 07:30:09;;;;;;;83.93;51.45;;;14.40;68.10;;;;;;4993851;28;90033;-78
2023/04/26 07:32:35;;;;;;;86.13;51.97;;;14.40;67.20;;;;;;4995004;28;89910;-78
2023/04/26 07:35:04;;;;;;;84.45;51.88;;;14.40;66.80;;;;;;4993594;28;89567;-78
2023/04/26 07:37:31;;;;;;;87.97;52.05;;;14.40;66.60;;;;;;4993610;28;92348;-79
2023/04/26 07:39:56;;;;;;;85.63;51.85;;;14.40;66.30;;;;;;4993641;28;92344;-79
2023/04/26 07:42:22;;;;;;;85.40;51.50;;;14.40;66.30;;;;;;4999432;28;89675;-78
2023/04/26 07:44:48;;;;;;;85.43;51.65;;;14.40;66.30;;;;;;4997647;28;93058;-79
2023/04/26 07:47:14;;;;;;;86.13;51.78;;;14.40;66.20;;;;;;4994607;28;90225;-78
2023/04/26 07:49:40;;;;;;;84.95;52.20;;;14.40;66.10;;;;;;4996649;28;91024;-78
2023/04/26 07:52:08;;;;;;;87.75;51.97;;;14.50;66.00;;;;;;4998004;28;89914;-79
2023/04/26 07:54:33;;;;;;;85.10;51.78;;;14.40;65.90;;;;;;4998197;28;93048;-80
2023/04/26 07:56:59;;;;;;;86.03;51.83;;;14.50;65.90;;;;;;4997906;28;89567;-80
2023/04/26 07:59:25;;;;;;;86.25;51.60;;;14.50;65.80;;;;;;4996670;28;90664;-79
2023/04/26 08:01:51;;;;;;;88.93;52.13;;;14.50;65.60;;;;;;4994662;28;92382;-81
2023/04/26 08:04:28;;;;;;;87.03;52.05;;;14.50;65.70;;;;;;5007382;27;92736;-84
2023/04/26 08:06:55;;;;;;;84.75;51.55;;;14.60;66.10;;;;;;4995616;28;89448;-84
2023/04/26 08:09:21;;;;;;;89.00;51.80;;;14.60;66.60;;;;;;5000082;28;89685;-83
2023/04/26 08:11:47;;;;;;;85.78;51.90;;;14.60;66.90;;;;;;5000328;28;90058;-81
2023/04/26 08:14:12;;;;;;;88.82;51.75;;;14.60;66.90;;;;;;5000915;28;93588;-80
2023/04/26 08:16:38;;;;;;;87.13;52.08;;;14.60;67.00;;;;;;5001006;28;91937;-81
2023/04/26 08:19:03;;;;;;;85.75;51.78;;;14.70;67.10;;;;;;5000313;28;89922;-87
2023/04/26 08:21:30;;;;;;;87.00;52.28;;;14.60;66.90;;;;;;5000869;28;89454;-81
2023/04/26 08:23:56;;;;;;;86.80;52.13;;;14.70;67.00;;;;;;4999985;28;90510;-80
2023/04/26 08:26:21;;;;;;;88.63;52.08;;;14.70;66.80;;;;;;4998979;28;92993;-80
2023/04/26 08:28:47;;;;;;;90.60;52.55;;;14.70;66.90;;;;;;4998252;28;89488;-84
2023/04/26 08:31:13;;;;;;;85.97;52.08;;;14.70;66.60;;;;;;5001641;28;89792;-81
2023/04/26 08:33:39;;;;;;;90.78;52.50;;;14.70;66.30;;;;;;5000580;28;93161;-84
2023/04/26 08:36:05;;;;;;;88.28;52.50;;;14.80;66.60;;;;;;5004686;27;92737;-82
2023/04/26 08:38:31;;;;;;;88.07;52.40;;;14.80;66.50;;;;;;4993554;28;90697;-81
2023/04/26 08:41:00;;;;;;;90.80;52.45;;;14.80;66.20;;;;;;5003547;28;93077;-82
2023/04/26 08:43:27;;;;;;;88.57;52.72;;;14.80;66.10;;;;;;5001350;28;91301;-85
2023/04/26 08:45:54;;;;;;;87.53;51.97;;;14.90;66.30;;;;;;5001017;28;92609;-85
2023/04/26 08:48:20;;;;;;;89.20;51.95;;;14.90;66.10;;;;;;4997296;28;89906;-79
2023/04/26 08:50:47;;;;;;;89.50;51.85;;;14.90;66.20;;;;;;4998946;28;90037;-79
2023/04/26 08:53:16;;;;;;;87.30;52.20;;;14.90;66.10;;;;;;5004349;28;90794;-79
2023/04/26 08:55:46;;;;;;;91.40;52.55;;;14.90;66.10;;;;;;4998858;28;89796;-81
2023/04/26 08:58:12;;;;;;;86.82;52.20;;;14.90;66.00;;;;;;4992269;28;89587;-81
2023/04/26 09:00:38;;;;;;;88.65;52.67;;;15.00;66.10;;;;;;4998620;28;92064;-79
2023/04/26 09:03:03;;;;;;;86.72;52.00;;;15.00;65.90;;;;;;5000221;28;91351;-81
2023/04/26 09:05:29;;;;;;;86.70;51.85;;;15.00;66.00;;;;;;4996172;28;96701;-79
2023/04/26 09:08:04;;;;;;;87.70;52.25;;;15.00;65.90;;;;;;4997474;28;90682;-79
2023/04/26 09:10:31;;;;;;;87.60;52.33;;;15.00;65.70;;;;;;5002735;28;89610;-79
2023/04/26 09:12:57;;;;;;;90.15;52.42;;;15.00;65.60;;;;;;4991329;28;92243;-80
2023/04/26 09:15:25;;;;;;;88.45;52.35;;;15.00;65.60;;;;;;4992634;28;92093;-79
2023/04/26 09:17:51;;;;;;;87.45;52.00;;;15.00;65.50;;;;;;4994839;28;91871;-79
2023/04/26 09:20:22;;;;;;;87.47;52.17;;;15.10;65.70;;;;;;5001361;28;88643;-79
2023/04/26 09:22:53;;;;;;;86.57;52.17;;;15.10;65.50;;;;;;4995165;28;92793;-80
2023/04/26 09:25:28;;;;;;;87.70;52.42;;;15.10;65.50;;;;;;4996410;28;89897;-80
2023/04/26 09:27:53;;;;;;;89.05;52.53;;;15.10;65.20;;;;;;4996404;28;90380;-79
2023/04/26 09:30:21;;;;;;;90.30;52.28;;;15.10;65.30;;;;;;4996228;28;89400;-80
2023/04/26 09:33:05;;;;;;;88.32;51.97;;;15.10;65.60;;;;;;5001781;28;90250;-79
2023/04/26 09:35:39;;;;;;;87.85;52.10;;;15.10;65.30;;;;;;4996904;28;91947;-81
2023/04/26 09:38:11;;;;;;;86.70;52.38;;;15.10;65.00;;;;;;5004576;28;92868;-82
2023/04/26 09:40:48;;;;;;;87.40;52.50;;;15.20;65.30;;;;;;4998095;28;89420;-81
2023/04/26 09:43:19;;;;;;;88.72;52.42;;;15.10;65.30;;;;;;4999889;28;92631;-81
2023/04/26 09:45:49;;;;;;;;;;;15.20;65.10;;;;;;5005077;28;89653;-82
2023/04/26 09:48:25;;;;;;;88.35;51.70;;;15.20;64.90;;;;;;5018409;27;90091;-81
2023/04/26 09:51:09;;;;;;;87.40;52.13;;;15.20;65.10;;;;;;4993383;28;89885;-79
2023/04/26 09:53:38;;;;;;;88.95;52.35;;;15.20;65.10;;;;;;4990494;28;94220;-83
2023/04/26 09:56:17;;;;;;;87.97;52.17;;;15.30;65.20;;;;;;5004170;28;93659;-82
2023/04/26 09:58:46;;;;;;;89.25;52.58;;;15.30;65.00;;;;;;5015202;27;89315;-81
2023/04/26 10:01:15;;;;;;;87.55;52.28;;;15.30;65.00;;;;;;5002638;28;89780;-80
2023/04/26 10:03:44;;;;;;;87.07;52.25;;;15.30;65.20;;;;;;4999871;28;90822;-83
2023/04/26 10:06:11;;;;;;;87.85;52.63;;;15.30;65.00;;;;;;4998854;28;93508;-88
2023/04/26 10:08:36;;;;;;;88.97;52.53;;;15.30;65.10;;;;;;5001541;28;89392;-83
2023/04/26 10:11:12;;;;;;;90.18;52.20;;;15.40;65.30;;;;;;5008457;28;89137;-80
2023/04/26 10:13:40;;;;;;;89.15;52.42;;;15.40;65.10;;;;;;4989884;28;90309;-81
2023/04/26 10:16:08;;;;;;;88.13;52.25;;;15.40;65.20;;;;;;5000543;28;95106;-81
2023/04/26 10:18:34;;;;;;;89.20;52.33;;;15.40;65.50;;;;;;4998717;28;91895;-80
2023/04/26 10:21:10;;;;;;;87.88;52.05;;;15.40;64.90;;;;;;5001296;28;89375;-80
2023/04/26 10:23:37;;;;;;;86.78;52.17;;;15.40;65.00;;;;;;5013619;27;91981;-81
2023/04/26 10:26:02;;;;;;;88.50;52.42;;;15.40;65.00;;;;;;4997090;28;94055;-83
2023/04/26 10:28:43;;;;;;;86.88;52.15;;;15.40;65.10;;;;;;4994747;28;92028;-81
2023/04/26 10:31:09;;;;;;;86.82;51.78;;;15.50;65.10;;;;;;4999866;28;90582;-81
2023/04/26 10:33:35;;;;;;;88.63;52.95;;;15.50;64.80;;;;;;4997980;28;89971;-80
2023/04/26 10:36:04;;;;;;;87.68;52.28;;;15.50;64.70;;;;;;4998101;28;89762;-80
2023/04/26 10:38:30;;;;;;;87.30;52.08;;;15.50;64.60;;;;;;4999509;28;92242;-80
2023/04/26 10:41:38;;;;;;;89.50;52.47;;;15.50;64.40;;;;;;5003631;28;89350;-83
2023/04/26 10:44:36;;;;;;;89.03;52.35;;;15.50;64.30;;;;;;4998350;28;91610;-82
2023/04/26 10:47:05;;;;;;;87.40;52.63;;;15.50;64.40;;;;;;4996391;28;90455;-81
2023/04/26 10:49:47;;;;;;;89.18;52.40;;;15.60;64.40;;;;;;4991745;28;93684;-81
2023/04/26 10:52:19;;;;;;;89.03;52.28;;;15.60;65.10;;;;;;5000172;28;89441;-81
2023/04/26 10:54:46;;;;;;;87.90;52.60;;;15.60;65.20;;;;;;5012917;28;92838;-81
2023/04/26 10:57:13;;;;;;;88.25;52.40;;;15.60;64.90;;;;;;4994692;28;92957;-81
2023/04/26 10:59:38;;;;;;;87.80;52.45;;;15.60;65.00;;;;;;4996037;28;89568;-82
2023/04/26 11:02:08;;;;;;;90.97;52.63;;;15.60;65.20;;;;;;5003674;28;90264;-82
2023/04/26 11:04:52;;;;;;;88.03;52.33;;;15.60;65.10;;;;;;4996387;28;90087;-80
2023/04/26 11:07:38;;;;;;;90.85;52.75;;;15.60;65.20;;;;;;4994677;28;92972;-81
2023/04/26 11:10:11;;;;;;;87.93;52.60;;;15.60;65.10;;;;;;4999926;28;90696;-78
2023/04/26 11:12:41;;;;;;;87.70;52.50;;;15.70;65.30;;;;;;4995941;28;89910;-82
2023/04/26 11:15:07;;;;;;;88.75;52.25;;;15.70;65.40;;;;;;4999256;28;90110;-87
2023/04/26 11:17:38;;;;;;;89.47;53.05;;;15.70;64.50;;;;;;4997546;28;92260;-81
2023/04/26 11:20:09;;;;;;;90.75;52.63;;;15.70;64.80;;;;;;5001594;28;90438;-81
2023/04/26 11:22:38;;;;;;;87.32;52.20;;;15.70;64.60;;;;;;5001548;28;89543;-80
2023/04/26 11:25:05;;;;;;;88.18;52.67;;;15.70;65.10;;;;;;4999742;28;92818;-82
2023/04/26 11:27:30;;;;;;;89.72;52.65;;;15.70;65.10;;;;;;4999803;28;89876;-82
2023/04/26 11:29:56;;;;;;;87.93;52.45;;;15.80;65.00;;;;;;5001890;28;91591;-79
2023/04/26 11:32:21;;;;;;;88.20;52.58;;;15.80;65.00;;;;;;4998419;28;89623;-81
2023/04/26 11:34:49;;;;;;;89.13;52.92;;;15.80;64.90;;;;;;4995261;28;91354;-86
2023/04/26 11:37:15;;;;;;;88.43;52.35;;;15.80;64.80;;;;;;4997331;28;93739;-81
2023/04/26 11:39:43;;;;;;;90.18;52.80;;;15.80;64.90;;;;;;4997036;28;90002;-83
2023/04/26 11:42:11;;;;;;;88.65;52.85;;;15.80;64.10;;;;;;4999565;28;89494;-82
2023/04/26 11:44:37;;;;;;;88.70;52.55;;;15.80;64.30;;;;;;4998562;28;89792;-81
2023/04/26 11:47:05;;;;;;;88.95;52.78;;;15.80;64.30;;;;;;4999391;28;92709;-81
2023/04/26 11:49:32;;;;;;;90.05;52.88;;;15.80;64.30;;;;;;5002730;27;89453;-80
2023/04/26 11:52:01;;;;;;;89.50;52.90;;;15.90;64.20;;;;;;4998710;28;92006;-78
2023/04/26 11:54:35;;;;;;;88.38;52.90;;;15.90;64.00;;;;;;4995101;28;90184;-81
2023/04/26 11:57:15;;;;;;;90.18;53.00;;;15.90;63.60;;;;;;4996368;28;92508;-84
2023/04/26 11:59:42;;;;;;;89.63;52.72;;;16.00;63.90;;;;;;4996549;28;90601;-82
2023/04/26 12:02:08;;;;;;;88.75;52.72;;;16.00;64.10;;;;;;5005254;28;90554;-83
2023/04/26 12:04:38;;;;;;;88.53;52.65;;;16.00;64.40;;;;;;5002025;28;93241;-79
2023/04/26 12:07:06;;;;;;;90.60;52.85;;;16.00;64.00;;;;;;5002666;28;93691;-82
2023/04/26 12:09:31;;;;;;;90.82;53.20;;;16.10;63.90;;;;;;5002382;28;89368;-81
2023/04/26 12:12:01;;;;;;;89.10;52.95;;;16.10;63.40;;;;;;4999500;28;89474;-84
2023/04/26 12:14:35;;;;;;;90.15;53.30;;;16.10;63.30;;;;;;4998856;28;92122;-84
2023/04/26 12:17:02;;;;;;;89.13;52.92;;;16.00;63.60;;;;;;4996592;28;90387;-82
2023/04/26 12:19:35;;;;;;;93.30;52.97;;;16.10;63.60;;;;;;4997675;28;89751;-80
2023/04/26 12:22:01;;;;;;;90.82;53.15;;;16.10;63.90;;;;;;4995938;28;89826;-80
2023/04/26 12:24:32;;;;;;;90.70;52.83;;;16.10;63.80;;;;;;4996762;28;94080;-81
2023/04/26 12:26:57;;;;;;;90.80;52.73;;;16.10;63.30;;;;;;5013780;27;93431;-81
2023/04/26 12:29:23;;;;;;;90.65;52.60;;;16.20;63.60;;;;;;4999642;28;89704;-81